Time;durP1;ratioP1;P1;durP2;ratioP2;P2;SDS_P1;SDS_P2;PMS_P1;PMS_P2;Temp;Humidity;BMP_temperature;BMP_pressure;BME280_temperature;BME280_humidity;BME280_pressure;Samples;Min_cycle;Max_cycle;Signal;HPM_P1;HPM_P2
2021/05/09 00:02:57;;;;;;;79.23;51.77;;;;;;;7.19;81.40;99287.11;2300982;77;22919;-77
2021/05/09 00:06:13;;;;;;;33.73;20.90;;;;;;;7.50;64.94;99289.83;2210299;79;23028;-78
2021/05/09 00:09:25;;;;;;;27.60;18.25;;;;;;;6.12;62.72;99289.89;2238021;79;27995;-78
2021/05/09 00:12:34;;;;;;;27.20;16.00;;;;;;;5.23;62.90;99288.15;2212164;79;22891;-78
2021/05/09 00:15:47;;;;;;;23.10;15.27;;;;;;;4.46;63.90;99293.13;2295958;77;22851;-78
2021/05/09 00:18:58;;;;;;;24.47;15.50;;;;;;;3.94;64.92;99291.22;2275324;77;22630;-78
2021/05/09 00:22:08;;;;;;;21.50;14.23;;;;;;;3.59;65.72;99289.61;2296092;77;22877;-78
2021/05/09 00:25:17;;;;;;;22.30;13.60;;;;;;;3.32;66.24;99289.18;2212309;79;23228;-78
2021/05/09 00:28:28;;;;;;;23.97;14.07;;;;;;;3.12;67.01;99286.94;2296039;77;23143;-79
2021/05/09 00:31:38;;;;;;;22.40;13.97;;;;;;;3.02;67.68;99286.02;2212345;79;22565;-78
2021/05/09 00:34:48;;;;;;;18.07;13.00;;;;;;;2.98;68.05;99288.38;2296133;77;22862;-78
2021/05/09 00:37:57;;;;;;;24.10;13.87;;;;;;;2.94;68.13;99285.17;2281251;78;22917;-79
2021/05/09 00:41:07;;;;;;;25.53;14.30;;;;;;;2.88;68.24;99283.17;2296191;77;22855;-79
2021/05/09 00:44:16;;;;;;;20.90;13.90;;;;;;;2.82;68.44;99282.88;2212461;79;22779;-78
2021/05/09 00:47:32;;;;;;;25.00;14.60;;;;;;;2.76;68.53;99285.16;2295866;77;22876;-80
2021/05/09 00:50:43;;;;;;;26.60;17.95;;;;;;;2.66;68.59;99276.48;2191972;79;28285;-77
2021/05/09 00:53:53;;;;;;;23.00;14.47;;;;;;;2.87;68.01;99280.12;2212367;79;22518;-79
2021/05/09 00:57:08;;;;;;;21.13;14.23;;;;;;;2.69;68.50;99278.81;2210549;79;22422;-78
2021/05/09 01:00:20;;;;;;;25.27;17.50;;;;;;;2.57;68.63;99283.33;2241405;79;27721;-77
2021/05/09 01:03:30;;;;;;;21.63;14.50;;;;;;;2.83;68.20;99286.82;2212462;79;22844;-78
2021/05/09 01:06:39;;;;;;;25.97;14.73;;;;;;;2.65;68.56;99278.58;2261686;79;23093;-78
2021/05/09 01:09:49;;;;;;;22.57;14.60;;;;;;;2.53;68.68;99277.53;2212246;79;22520;-78
2021/05/09 01:12:58;;;;;;;26.07;14.07;;;;;;;2.42;68.96;99278.69;2261373;79;22454;-78
2021/05/09 01:16:09;;;;;;;25.40;14.93;;;;;;;2.37;69.37;99277.57;2212276;79;22539;-80
2021/05/09 01:19:21;;;;;;;37.93;25.43;;;;;;;2.32;69.54;99276.05;2211517;79;22602;-77
2021/05/09 01:22:30;;;;;;;92.67;66.23;;;;;;;3.68;84.57;99281.00;2212077;79;22626;-77
2021/05/09 01:25:46;;;;;;;51.83;30.40;;;;;;;7.42;79.81;99267.94;2298213;77;22734;-77
2021/05/09 01:28:56;;;;;;;28.23;17.63;;;;;;;7.10;65.18;99266.04;2212456;79;23214;-77
2021/05/09 01:32:12;;;;;;;28.03;16.57;;;;;;;5.67;63.56;99270.45;2210447;79;22704;-77
2021/05/09 01:35:22;;;;;;;24.53;14.13;;;;;;;4.72;63.87;99271.36;2261788;79;22542;-78
2021/05/09 01:38:31;;;;;;;23.23;14.77;;;;;;;4.04;64.51;99275.31;2261402;79;22796;-78
2021/05/09 01:41:47;;;;;;;26.57;15.17;;;;;;;3.56;65.25;99276.97;2210340;79;22528;-77
2021/05/09 01:44:56;;;;;;;25.93;15.57;;;;;;;3.26;66.24;99280.27;2212262;79;22671;-77
2021/05/09 01:48:07;;;;;;;22.13;14.70;;;;;;;3.05;66.57;99275.84;2261703;79;22751;-78
2021/05/09 01:51:16;;;;;;;25.80;15.90;;;;;;;2.78;66.97;99275.80;2261524;79;22519;-78
2021/05/09 01:54:28;;;;;;;28.40;18.73;;;;;;;2.61;67.44;99277.95;2275548;77;28265;-78
2021/05/09 01:57:37;;;;;;;24.87;15.77;;;;;;;2.77;66.89;99283.05;2261200;79;23003;-77
2021/05/09 02:00:47;;;;;;;27.83;16.17;;;;;;;2.53;67.83;99274.55;2261433;79;22855;-78
2021/05/09 02:03:59;;;;;;;22.77;15.07;;;;;;;2.42;68.50;99275.70;2211642;79;22700;-80
2021/05/09 02:07:09;;;;;;;26.20;14.93;;;;;;;2.34;68.57;99269.69;2212117;79;22540;-78
2021/05/09 02:10:25;;;;;;;23.67;14.87;;;;;;;2.28;68.85;99275.81;2397082;74;22839;-77
2021/05/09 02:13:34;;;;;;;24.87;14.83;;;;;;;2.21;69.39;99272.04;2212317;79;22622;-79
2021/05/09 02:16:46;;;;;;;31.12;19.00;;;;;;;2.12;69.40;99263.44;2241446;79;27995;-78
2021/05/09 02:19:56;;;;;;;24.70;16.60;;;;;;;2.38;68.77;99267.34;2212557;79;22892;-80
2021/05/09 02:23:08;;;;;;;27.70;16.57;;;;;;;2.26;69.41;99268.41;2258158;79;22176;-77
2021/05/09 02:26:18;;;;;;;24.87;16.03;;;;;;;2.20;69.87;99266.41;2212278;79;22581;-81
2021/05/09 02:29:28;;;;;;;27.70;15.83;;;;;;;2.15;70.04;99262.31;2295826;77;22970;-77
2021/05/09 02:32:37;;;;;;;26.23;15.37;;;;;;;2.15;70.42;99257.56;2260435;77;22632;-78
2021/05/09 02:35:53;;;;;;;26.37;16.80;;;;;;;2.12;70.41;99258.29;2298340;77;22646;-80
2021/05/09 02:39:04;;;;;;;26.03;16.73;;;;;;;2.11;70.83;99255.64;2261391;79;22980;-78
2021/05/09 02:42:13;;;;;;;34.13;17.80;;;;;;;2.12;71.17;99254.83;2212256;79;22922;-78
2021/05/09 02:45:22;;;;;;;24.87;17.00;;;;;;;2.11;71.16;99247.51;2212415;79;22580;-78
2021/05/09 02:48:38;;;;;;;30.13;17.40;;;;;;;2.11;71.15;99241.47;2295963;77;22844;-80
2021/05/09 02:51:50;;;;;;;28.23;20.70;;;;;;;2.13;71.35;99245.01;2238276;79;28349;-78
2021/05/09 02:54:59;;;;;;;26.30;17.40;;;;;;;2.41;70.64;99242.14;2261640;78;22943;-80
2021/05/09 02:58:15;;;;;;;28.70;17.43;;;;;;;2.31;71.29;99242.08;2210681;79;22528;-79
2021/05/09 03:01:24;;;;;;;31.53;17.33;;;;;;;2.32;71.66;99249.41;2212245;79;22743;-80
2021/05/09 03:04:34;;;;;;;28.73;18.73;;;;;;;2.38;72.16;99250.59;2261447;79;22468;-76
2021/05/09 03:07:44;;;;;;;29.63;19.30;;;;;;;2.43;72.27;99251.71;2212461;79;22500;-81
2021/05/09 03:10:53;;;;;;;26.60;16.97;;;;;;;2.51;72.23;99252.09;2261732;79;22484;-79
2021/05/09 03:14:03;;;;;;;25.13;16.60;;;;;;;2.58;72.21;99261.02;2212240;79;22649;-78
2021/05/09 03:17:15;;;;;;;31.70;18.10;;;;;;;2.67;72.24;99270.52;2211948;79;22726;-80
2021/05/09 03:20:25;;;;;;;28.57;18.23;;;;;;;2.71;72.11;99268.58;2274749;77;22763;-80
2021/05/09 03:23:34;;;;;;;28.10;17.60;;;;;;;2.79;72.12;99265.97;2212361;79;22716;-81
2021/05/09 03:26:44;;;;;;;25.50;16.93;;;;;;;2.94;72.04;99268.00;2296135;77;23170;-77
2021/05/09 03:29:54;;;;;;;28.70;18.33;;;;;;;3.08;71.99;99274.70;2274685;77;23073;-78
2021/05/09 03:33:04;;;;;;;27.50;17.03;;;;;;;3.28;71.83;99277.34;2261410;79;22805;-78
2021/05/09 03:36:16;;;;;;;26.03;17.33;;;;;;;3.49;71.54;99272.81;2298459;77;22863;-81
2021/05/09 03:39:25;;;;;;;30.70;18.13;;;;;;;3.71;71.28;99270.81;2261534;79;22499;-78
2021/05/09 03:42:35;;;;;;;27.97;17.27;;;;;;;3.97;70.94;99271.09;2296006;77;22870;-77
2021/05/09 03:45:53;;;;;;;24.87;17.23;;;;;;;4.25;70.33;99275.37;2212208;79;23037;-77
2021/05/09 03:49:03;;;;;;;26.80;18.07;;;;;;;4.48;69.93;99274.69;2212500;79;22878;-77
2021/05/09 03:52:12;;;;;;;23.97;17.03;;;;;;;4.67;69.54;99275.05;2211972;79;22776;-77
2021/05/09 03:55:22;;;;;;;24.40;17.67;;;;;;;4.85;69.16;99285.27;2295666;77;22597;-77
2021/05/09 03:58:32;;;;;;;32.03;18.30;;;;;;;4.97;68.56;99271.95;2212066;79;22774;-77
2021/05/09 04:01:43;;;;;;;32.23;20.97;;;;;;;5.06;68.37;99272.33;2241177;79;28036;-77
2021/05/09 04:04:53;;;;;;;26.57;17.90;;;;;;;5.40;67.42;99267.69;2212134;79;22897;-78
2021/05/09 04:08:03;;;;;;;23.97;17.37;;;;;;;5.42;67.33;99269.92;2296669;77;22843;-81
2021/05/09 04:11:16;;;;;;;28.67;19.75;;;;;;;5.47;67.26;99275.28;2278824;77;28060;-77
2021/05/09 04:14:26;;;;;;;25.70;17.40;;;;;;;5.82;66.36;99270.14;2261378;79;22755;-80
2021/05/09 04:17:37;;;;;;;25.93;16.53;;;;;;;5.89;66.28;99263.48;2274781;77;23409;-77
2021/05/09 04:20:47;;;;;;;23.10;15.97;;;;;;;6.15;65.87;99265.38;2212031;79;22675;-76
2021/05/09 04:23:56;;;;;;;26.10;16.77;;;;;;;6.44;65.13;99261.22;2261524;79;22813;-77
2021/05/09 04:27:06;;;;;;;27.73;17.30;;;;;;;6.84;64.67;99263.86;2261484;79;22810;-78
2021/05/09 04:30:26;;;;;;;24.37;16.83;;;;;;;7.26;63.60;99262.69;2211842;79;22946;-78
2021/05/09 04:33:36;;;;;;;25.03;15.57;;;;;;;7.64;62.84;99259.08;2301117;77;22833;-79
2021/05/09 04:36:52;;;;;;;24.20;15.97;;;;;;;8.07;61.18;99256.45;2268698;78;22636;-78
2021/05/09 04:40:02;;;;;;;24.57;15.10;;;;;;;8.18;61.04;99261.12;2212391;79;23087;-79
2021/05/09 04:43:11;;;;;;;25.93;15.80;;;;;;;8.23;59.37;99264.73;2260117;77;22900;-78
2021/05/09 04:46:44;;;;;;;24.57;17.27;;;;;;;8.25;59.34;99256.97;2260162;77;28092;-78
2021/05/09 04:49:57;;;;;;;25.27;15.73;;;;;;;8.61;58.09;99249.30;2296163;77;23157;-79
2021/05/09 04:53:17;;;;;;;27.77;15.40;;;;;;;8.73;58.45;99244.86;2266798;79;22976;-78
2021/05/09 04:56:27;;;;;;;22.17;15.40;;;;;;;8.81;58.17;99240.73;2298924;77;22834;-78
2021/05/09 04:59:36;;;;;;;26.17;15.83;;;;;;;8.82;57.44;99246.39;2212570;79;22842;-80
2021/05/09 05:02:46;;;;;;;23.87;16.30;;;;;;;8.80;57.20;99239.84;2296644;77;22753;-79
2021/05/09 05:05:56;;;;;;;20.17;14.07;;;;;;;8.81;57.48;99245.52;2296873;77;22863;-78
2021/05/09 05:09:05;;;;;;;22.17;14.63;;;;;;;9.11;57.04;99239.30;2298921;77;22847;-79
2021/05/09 05:12:15;;;;;;;19.53;13.20;;;;;;;9.23;56.40;99230.04;2298682;77;23158;-77
2021/05/09 05:15:25;;;;;;;19.73;13.77;;;;;;;9.36;55.70;99225.11;2262064;79;22811;-79
2021/05/09 05:18:41;;;;;;;20.57;13.17;;;;;;;9.47;55.53;99225.80;2398122;74;22842;-78
2021/05/09 05:21:53;;;;;;;23.00;14.83;;;;;;;9.63;55.15;99221.84;2296968;77;22860;-79
2021/05/09 05:25:03;;;;;;;19.67;13.97;;;;;;;9.80;54.96;99233.93;2213326;79;22883;-78
2021/05/09 05:28:13;;;;;;;25.00;15.50;;;;;;;10.00;54.54;99230.00;2300812;77;22876;-78
2021/05/09 05:31:25;;;;;;;20.20;14.10;;;;;;;10.12;54.19;99232.85;2297508;77;22246;-78
2021/05/09 05:34:35;;;;;;;20.87;13.47;;;;;;;10.06;53.66;99234.46;2261939;77;22868;-78
2021/05/09 05:37:46;;;;;;;22.85;15.50;;;;;;;9.94;53.27;99231.61;2193493;79;28182;-77
2021/05/09 05:40:56;;;;;;;22.10;14.93;;;;;;;10.05;53.20;99237.49;2212460;79;22844;-79
2021/05/09 05:44:05;;;;;;;21.13;14.70;;;;;;;10.20;53.58;99244.35;2275494;77;22572;-78
2021/05/09 05:47:15;;;;;;;26.63;15.17;;;;;;;10.37;53.33;99245.10;2294532;77;22927;-80
2021/05/09 05:50:25;;;;;;;22.60;15.40;;;;;;;10.64;53.28;99240.84;2213035;79;22585;-79
2021/05/09 05:53:41;;;;;;;21.33;14.20;;;;;;;10.94;52.54;99239.19;2260867;77;22849;-79
2021/05/09 05:56:57;;;;;;;19.83;14.37;;;;;;;11.24;52.54;99234.88;2398268;74;22578;-79
2021/05/09 06:00:06;;;;;;;18.95;13.43;;;;;;;11.57;51.17;99231.48;2296294;77;22350;-79
2021/05/09 06:03:16;;;;;;;20.82;14.20;;;;;;;11.85;50.92;99225.34;2212420;79;22903;-79
2021/05/09 06:06:36;;;;;;;21.17;14.75;;;;;;;12.16;49.98;99232.73;2210537;79;22692;-80
2021/05/09 06:09:45;;;;;;;18.62;13.70;;;;;;;12.29;49.62;99235.06;2212409;79;22578;-80
2021/05/09 06:12:55;;;;;;;19.50;13.78;;;;;;;12.48;49.22;99237.02;2298698;77;22437;-78
2021/05/09 06:16:05;;;;;;;18.32;14.13;;;;;;;12.66;48.59;99228.46;2296296;77;22723;-78
2021/05/09 06:19:24;;;;;;;20.45;14.30;;;;;;;12.72;48.49;99228.52;2298335;77;22908;-79
2021/05/09 06:22:37;;;;;;;22.02;14.53;;;;;;;12.99;48.94;99233.13;2301482;77;22634;-80
2021/05/09 06:25:47;;;;;;;18.48;14.05;;;;;;;13.28;48.34;99230.80;2260493;77;22962;-80
2021/05/09 06:29:03;;;;;;;17.98;13.40;;;;;;;13.51;47.42;99228.32;2268922;78;22933;-79
2021/05/09 06:32:14;;;;;;;20.72;14.05;;;;;;;13.73;47.81;99228.01;2260468;77;23117;-78
2021/05/09 06:35:23;;;;;;;19.65;12.80;;;;;;;13.93;46.68;99227.70;2212820;79;22808;-78
2021/05/09 06:38:35;;;;;;;16.23;13.15;;;;;;;14.22;45.82;99229.13;2298475;77;22185;-79
2021/05/09 06:41:45;;;;;;;19.15;13.18;;;;;;;14.72;51.37;99233.66;2274904;77;22554;-79
2021/05/09 06:44:59;;;;;;;17.57;12.05;;;;;;;16.37;45.54;99219.38;2296310;77;22991;-78
2021/05/09 06:48:09;;;;;;;16.17;12.68;;;;;;;16.54;42.82;99217.55;2242002;79;28025;-80
2021/05/09 06:51:49;;;;;;;15.43;13.05;;;;;;;16.12;42.75;99223.02;2287691;77;28215;-80
2021/05/09 06:55:04;;;;;;;14.98;10.72;;;;;;;16.22;41.88;99232.18;2301746;77;22595;-80
2021/05/09 06:58:14;;;;;;;16.35;11.15;;;;;;;16.09;44.68;99224.34;2296771;77;22855;-81
2021/05/09 07:01:30;;;;;;;13.83;9.88;;;;;;;17.30;40.88;99217.88;2260697;77;22888;-79
2021/05/09 07:04:42;;;;;;;13.72;9.48;;;;;;;17.14;39.64;99229.00;2213191;79;22802;-80
2021/05/09 07:18:38;;;;;;;11.45;8.40;;;;;;;16.93;39.84;99228.73;2296421;77;22843;-79
2021/05/09 07:21:53;;;;;;;13.13;9.73;;;;;;;17.01;39.52;99219.45;2242100;79;27979;-78
2021/05/09 07:25:02;;;;;;;10.40;8.83;;;;;;;17.46;38.97;99210.27;2252804;79;22862;-81
2021/05/09 07:28:22;;;;;;;11.65;8.65;;;;;;;17.46;38.85;99205.87;2301798;77;22814;-80
2021/05/09 07:31:42;;;;;;;12.55;8.93;;;;;;;17.42;38.64;99207.23;2212638;79;22894;-80
2021/05/09 07:48:44;;;;;;;7.47;6.22;;;;;;;18.35;36.68;99186.37;2147218;83;21186;-79
2021/05/09 07:51:55;;;;;;;7.55;6.58;;;;;;;18.45;35.82;99191.50;2296751;77;22820;-80
2021/05/09 07:55:05;;;;;;;8.78;7.25;;;;;;;18.50;35.47;99190.56;2261490;79;22707;-77
2021/05/09 07:58:15;;;;;;;5.15;4.55;;;;;;;19.60;35.57;99189.67;2213065;79;22503;-81
2021/05/09 08:01:25;;;;;;;8.08;4.50;;;;;;;20.01;33.01;99177.83;2275628;77;22460;-80
2021/05/09 08:04:34;;;;;;;4.62;4.22;;;;;;;19.70;30.69;99182.84;2262605;79;23099;-79
2021/05/09 08:07:57;;;;;;;6.33;4.58;;;;;;;19.53;31.57;99184.08;2298959;77;23185;-79
2021/05/09 08:11:09;;;;;;;4.85;4.20;;;;;;;19.31;31.88;99184.89;2211842;79;23081;-80
2021/05/09 08:14:22;;;;;;;8.78;4.33;;;;;;;19.35;32.36;99181.28;2213030;79;23027;-80
2021/05/09 08:17:36;;;;;;;4.17;3.87;;;;;;;19.41;32.06;99178.52;2299248;77;22849;-79
2021/05/09 08:20:47;;;;;;;5.03;4.47;;;;;;;19.24;30.85;99179.28;2279525;77;28041;-80
2021/05/09 08:23:58;;;;;;;4.67;4.17;;;;;;;19.57;29.55;99165.91;2296195;77;22839;-79
2021/05/09 08:27:14;;;;;;;7.20;4.05;;;;;;;19.48;31.61;99166.05;2397641;74;22963;-80
2021/05/09 08:30:36;;;;;;;5.53;4.55;;;;;;;19.65;30.64;99159.55;2282849;77;28009;-79
2021/05/09 08:33:48;;;;;;;5.55;4.10;;;;;;;20.74;30.52;99152.79;2212176;79;23195;-78
2021/05/09 08:36:57;;;;;;;5.05;4.45;;;;;;;21.13;28.94;99155.39;2238489;79;27949;-78
2021/05/09 08:40:07;;;;;;;6.22;4.25;;;;;;;21.84;27.06;99149.95;2261616;79;22815;-80
2021/05/09 08:43:23;;;;;;;3.90;3.40;;;;;;;21.68;26.83;99142.88;2398218;74;22827;-80
2021/05/09 08:46:34;;;;;;;4.03;3.72;;;;;;;21.44;28.45;99140.42;2242558;79;27994;-78
2021/05/09 08:49:44;;;;;;;4.12;3.50;;;;;;;21.95;26.32;99145.20;2258244;78;22276;-80
2021/05/09 08:52:55;;;;;;;4.53;3.45;;;;;;;21.45;26.83;99139.96;2219787;79;28403;-80
2021/05/09 08:56:07;;;;;;;3.50;3.20;;;;;;;21.45;25.98;99147.47;2276512;77;27898;-81
2021/05/09 09:09:43;;;;;;;4.47;3.65;;;;;;;20.42;27.34;99132.80;2267208;79;22359;-80
2021/05/09 09:12:53;;;;;;;3.80;3.50;;;;;;;20.46;28.01;99143.30;2262121;79;22772;-79
2021/05/09 09:16:02;;;;;;;3.00;2.72;;;;;;;20.53;28.66;99133.41;2298801;77;22844;-79
2021/05/09 09:19:18;;;;;;;4.33;3.20;;;;;;;20.59;27.22;99135.92;2210709;79;22924;-81
2021/05/09 09:22:28;;;;;;;3.30;2.90;;;;;;;20.72;27.24;99131.19;2261500;79;22861;-83
2021/05/09 09:25:52;;;;;;;3.50;3.20;;;;;;;20.81;26.31;99121.71;2294143;77;22975;-79
2021/05/09 09:29:01;;;;;;;3.33;2.72;;;;;;;20.64;27.49;99137.55;2212412;79;22891;-78
2021/05/09 09:32:16;;;;;;;3.20;2.90;;;;;;;20.90;27.31;99132.96;2260186;77;23967;-81
2021/05/09 09:35:27;;;;;;;4.05;3.20;;;;;;;20.98;27.23;99133.64;2299140;77;22955;-80
2021/05/09 09:38:43;;;;;;;3.92;3.35;;;;;;;21.04;27.24;99123.77;2398316;74;22826;-80
2021/05/09 09:41:59;;;;;;;3.95;3.08;;;;;;;21.06;27.13;99140.53;2210774;79;23023;-82
2021/05/09 09:45:11;;;;;;;3.37;3.08;;;;;;;20.93;27.17;99135.54;2296200;77;22852;-80
2021/05/09 09:48:42;;;;;;;3.72;3.30;;;;;;;20.91;27.27;99134.70;2397465;74;22824;-81
2021/05/09 09:52:04;;;;;;;3.90;3.20;;;;;;;21.10;27.49;99128.92;2238080;79;28130;-81
2021/05/09 09:55:19;;;;;;;3.12;2.62;;;;;;;21.38;26.47;99127.30;2296686;77;22409;-80
2021/05/09 09:58:30;;;;;;;2.87;2.52;;;;;;;21.35;26.96;99128.72;2275469;77;23127;-82
2021/05/09 10:01:40;;;;;;;2.90;2.40;;;;;;;21.41;26.81;99135.64;2212614;79;23196;-80
2021/05/09 10:04:52;;;;;;;2.60;2.40;;;;;;;21.42;26.09;99123.66;2275162;77;22690;-80
2021/05/09 10:08:16;;;;;;;3.12;2.77;;;;;;;21.29;26.38;99123.12;2212561;79;22603;-80
2021/05/09 10:11:26;;;;;;;3.83;3.00;;;;;;;21.23;26.57;99138.34;2294328;77;22910;-80
2021/05/09 10:14:35;;;;;;;2.85;2.65;;;;;;;21.22;26.07;99128.60;2299268;77;22850;-80
2021/05/09 10:17:57;;;;;;;7.55;2.55;;;;;;;21.26;26.38;99126.31;2261702;79;22956;-82
2021/05/09 10:21:12;;;;;;;3.00;2.65;;;;;;;21.44;26.41;99116.52;2296209;77;24001;-80
2021/05/09 10:24:31;;;;;;;3.37;2.77;;;;;;;21.47;26.54;99120.41;2251127;78;22941;-80
2021/05/09 10:38:07;;;;;;;2.05;1.95;;;;;;;21.80;26.43;99105.78;2240186;79;22911;-80
2021/05/09 10:41:20;;;;;;;2.55;2.35;;;;;;;21.99;26.35;99106.98;2212399;79;22929;-81
2021/05/09 10:44:30;;;;;;;5.28;2.77;;;;;;;22.14;25.78;99097.23;2298850;77;22584;-78
2021/05/09 10:47:42;;;;;;;2.77;2.58;;;;;;;22.21;26.75;99094.80;2295970;77;22519;-78
2021/05/09 10:50:51;;;;;;;2.77;2.50;;;;;;;22.38;26.22;99084.09;2275201;77;22892;-78
2021/05/09 10:54:02;;;;;;;3.05;2.60;;;;;;;22.36;26.12;99087.26;2241880;79;27702;-78
2021/05/09 10:57:14;;;;;;;2.80;2.53;;;;;;;22.73;26.66;99089.16;2241729;79;27953;-78
2021/05/09 11:00:24;;;;;;;6.55;2.70;;;;;;;22.98;25.92;99080.38;2296068;77;22717;-78
2021/05/09 11:03:34;;;;;;;2.58;2.37;;;;;;;22.98;25.90;99087.02;2261657;79;22763;-79
2021/05/09 11:06:43;;;;;;;4.12;2.42;;;;;;;22.84;25.93;99081.71;2261627;79;22453;-80
2021/05/09 11:09:53;;;;;;;5.67;2.08;;;;;;;22.88;25.15;99086.02;2296312;77;22431;-78
2021/05/09 11:13:02;;;;;;;2.50;2.30;;;;;;;22.79;26.46;99078.77;2261396;79;22595;-78
2021/05/09 11:16:12;;;;;;;2.50;2.30;;;;;;;22.78;25.91;99080.55;2260162;77;23056;-78
2021/05/09 11:19:25;;;;;;;3.02;2.60;;;;;;;22.75;25.86;99079.79;2261662;79;22184;-79
2021/05/09 11:22:37;;;;;;;3.22;2.33;;;;;;;22.72;27.18;99077.23;2298544;77;22833;-79
2021/05/09 11:25:47;;;;;;;3.12;2.37;;;;;;;22.76;26.59;99073.09;2212225;79;22745;-80
2021/05/09 11:28:57;;;;;;;2.50;2.30;;;;;;;22.92;26.63;99075.26;2212614;79;22441;-79
2021/05/09 11:32:07;;;;;;;2.72;2.52;;;;;;;22.96;26.11;99074.23;2275929;77;27883;-78
2021/05/09 11:35:16;;;;;;;3.22;2.40;;;;;;;23.34;26.80;99074.20;2261605;79;22547;-79
2021/05/09 11:38:26;;;;;;;3.42;2.83;;;;;;;23.23;26.64;99062.60;2212586;79;22513;-78
2021/05/09 11:41:36;;;;;;;3.65;2.37;;;;;;;23.08;26.00;99064.02;2261544;79;22439;-79
2021/05/09 11:44:52;;;;;;;7.60;2.58;;;;;;;23.12;27.77;99064.78;2261256;79;22619;-78
2021/05/09 11:48:01;;;;;;;2.50;2.30;;;;;;;23.31;27.85;99056.54;2212263;79;23092;-77
2021/05/09 11:51:11;;;;;;;5.00;2.70;;;;;;;23.38;27.04;99046.06;2261401;79;22678;-78
2021/05/09 11:54:26;;;;;;;4.33;2.50;;;;;;;23.45;26.90;99054.27;2261472;79;22542;-79
2021/05/09 11:57:36;;;;;;;3.08;2.60;;;;;;;23.46;25.97;99050.69;2296128;77;22870;-79
2021/05/09 12:00:46;;;;;;;4.53;2.70;;;;;;;23.27;26.09;99050.05;2212268;79;23048;-78
2021/05/09 12:03:56;;;;;;;2.47;2.27;;;;;;;23.30;26.92;99043.28;2261537;78;22487;-77
2021/05/09 12:07:06;;;;;;;2.25;2.05;;;;;;;23.46;26.36;99036.49;2212222;79;23206;-77
2021/05/09 12:10:16;;;;;;;2.83;2.52;;;;;;;23.42;25.94;99030.41;2212339;79;22730;-79
2021/05/09 12:13:26;;;;;;;5.05;2.22;;;;;;;23.36;26.57;99026.61;2298238;77;22498;-78
2021/05/09 12:16:35;;;;;;;2.50;2.30;;;;;;;23.42;27.32;99035.73;2261537;79;22579;-77
2021/05/09 12:19:45;;;;;;;2.50;2.30;;;;;;;23.55;25.88;99036.64;2261544;78;22947;-78
2021/05/09 12:23:00;;;;;;;3.42;2.70;;;;;;;23.54;26.33;99030.88;2212477;79;22874;-77
2021/05/09 12:26:12;;;;;;;3.45;2.15;;;;;;;23.71;25.79;99028.01;2301654;77;22899;-78
2021/05/09 12:29:22;;;;;;;6.60;2.40;;;;;;;23.67;25.50;99018.86;2212357;79;22727;-78
2021/05/09 12:32:35;;;;;;;2.80;2.60;;;;;;;23.56;26.95;99005.08;2211731;79;23679;-78
2021/05/09 12:35:54;;;;;;;2.50;2.30;;;;;;;23.57;25.44;99006.81;2212811;79;22555;-77
2021/05/09 12:39:06;;;;;;;2.30;2.10;;;;;;;23.50;25.86;99000.81;2275469;77;22453;-79
2021/05/09 12:42:16;;;;;;;4.42;2.40;;;;;;;23.44;26.12;99001.05;2274963;77;22647;-77
2021/05/09 12:45:25;;;;;;;2.40;2.20;;;;;;;23.33;26.66;98996.09;2212264;79;22794;-77
2021/05/09 12:48:41;;;;;;;2.65;2.30;;;;;;;23.46;26.62;98985.88;2397396;74;22610;-79
2021/05/09 12:51:51;;;;;;;3.17;2.42;;;;;;;23.43;26.14;98996.64;2212478;79;22510;-77
2021/05/09 12:55:05;;;;;;;3.92;2.45;;;;;;;23.46;26.42;98991.20;2261519;79;22830;-78
2021/05/09 12:58:15;;;;;;;3.62;2.62;;;;;;;23.54;26.85;98993.11;2193566;79;28412;-77
2021/05/09 13:01:25;;;;;;;2.75;2.40;;;;;;;23.99;25.87;98987.80;2213713;79;22466;-76
2021/05/09 13:04:44;;;;;;;6.50;2.33;;;;;;;24.06;25.93;98989.30;2211179;79;22269;-77
2021/05/09 13:08:13;;;;;;;3.45;2.45;;;;;;;23.98;27.00;98986.06;2281796;77;23390;-79
2021/05/09 13:11:22;;;;;;;3.60;2.22;;;;;;;24.00;26.92;98986.00;2213532;79;22492;-77
2021/05/09 13:14:38;;;;;;;2.35;2.15;;;;;;;24.07;27.40;98981.69;2210935;79;22554;-77
2021/05/09 13:17:53;;;;;;;2.50;2.00;;;;;;;24.07;26.29;98977.70;2275255;77;22604;-77
2021/05/09 13:21:03;;;;;;;3.40;1.82;;;;;;;24.07;25.88;98958.16;2275799;77;22830;-77
2021/05/09 13:24:14;;;;;;;5.28;2.40;;;;;;;24.06;25.66;98963.95;2213238;79;22490;-77
2021/05/09 13:27:26;;;;;;;3.05;2.22;;;;;;;24.12;26.29;98959.70;2262000;79;23130;-77
2021/05/09 13:30:38;;;;;;;3.17;1.90;;;;;;;24.26;25.69;98960.94;2276790;77;22685;-76
2021/05/09 13:33:51;;;;;;;3.77;2.20;;;;;;;24.34;25.66;98954.88;2212317;79;25027;-78
2021/05/09 13:37:00;;;;;;;6.95;2.20;;;;;;;24.44;26.02;98945.08;2301630;77;22907;-77
2021/05/09 13:40:10;;;;;;;3.58;2.15;;;;;;;24.47;25.61;98944.55;2275874;77;22298;-81
2021/05/09 13:43:19;;;;;;;3.98;1.90;;;;;;;24.32;25.38;98942.94;2261572;79;22819;-78
2021/05/09 13:46:29;;;;;;;1.98;1.87;;;;;;;24.15;26.07;98941.37;2274976;77;22818;-79
2021/05/09 13:49:45;;;;;;;4.67;1.90;;;;;;;24.08;25.21;98938.56;2397884;74;22479;-79
2021/05/09 13:53:01;;;;;;;2.37;1.98;;;;;;;23.87;25.79;98927.45;2296537;77;22846;-80
2021/05/09 13:56:11;;;;;;;2.72;1.80;;;;;;;23.99;26.95;98921.61;2213139;79;22836;-77
2021/05/09 13:59:21;;;;;;;5.12;1.80;;;;;;;24.13;25.63;98912.11;2262045;79;22866;-77
2021/05/09 14:02:30;;;;;;;1.90;1.77;;;;;;;24.08;25.81;98912.77;2261261;79;22640;-79
2021/05/09 14:05:40;;;;;;;4.25;2.00;;;;;;;24.08;26.37;98907.90;2212336;79;22453;-79
2021/05/09 14:08:55;;;;;;;2.35;1.67;;;;;;;24.10;26.43;98908.23;2398001;74;23030;-78
2021/05/09 14:12:07;;;;;;;2.25;1.95;;;;;;;24.14;26.36;98912.52;2297392;77;22676;-79
2021/05/09 14:15:17;;;;;;;2.10;1.87;;;;;;;24.15;25.70;98908.91;2280313;77;28027;-80
2021/05/09 14:18:27;;;;;;;2.00;1.80;;;;;;;24.43;25.89;98907.80;2213711;79;22487;-79
2021/05/09 14:21:38;;;;;;;3.08;1.70;;;;;;;24.49;26.49;98899.53;2275991;77;22890;-79
2021/05/09 14:24:47;;;;;;;1.85;1.75;;;;;;;24.56;25.85;98896.13;2301740;77;22876;-79
2021/05/09 14:27:57;;;;;;;1.65;1.55;;;;;;;24.46;25.32;98895.66;2212827;79;22426;-79
2021/05/09 14:31:13;;;;;;;2.08;1.50;;;;;;;24.36;25.49;98890.32;2397387;74;22849;-79
2021/05/09 14:34:28;;;;;;;1.90;1.62;;;;;;;24.43;25.41;98886.45;2295959;77;22499;-79
2021/05/09 14:37:38;;;;;;;2.27;1.57;;;;;;;24.48;25.33;98880.91;2296753;77;22253;-79
2021/05/09 14:40:52;;;;;;;1.57;1.47;;;;;;;24.39;25.37;98868.84;2212644;79;22894;-79
2021/05/09 14:44:04;;;;;;;2.12;1.52;;;;;;;24.34;25.34;98870.84;2295987;77;22508;-79
2021/05/09 14:47:13;;;;;;;2.90;1.60;;;;;;;24.26;25.06;98874.25;2275238;77;22505;-80
2021/05/09 14:50:23;;;;;;;4.20;1.80;;;;;;;24.26;25.49;98870.25;2212148;79;22452;-79
2021/05/09 14:53:34;;;;;;;2.80;1.82;;;;;;;24.29;25.27;98871.52;2275129;77;22891;-78
2021/05/09 14:56:44;;;;;;;1.45;1.35;;;;;;;24.32;25.66;98867.38;2296372;77;23086;-78
2021/05/09 14:59:56;;;;;;;2.05;1.67;;;;;;;24.33;25.28;98865.98;2258785;79;22172;-78
2021/05/09 15:03:06;;;;;;;1.50;1.40;;;;;;;24.25;25.27;98864.05;2212287;79;22913;-79
2021/05/09 15:06:38;;;;;;;2.37;1.60;;;;;;;24.35;25.27;98861.91;2368817;74;27876;-81
2021/05/09 15:09:47;;;;;;;1.52;1.42;;;;;;;24.57;25.35;98854.69;2296398;77;22494;-79
2021/05/09 15:12:57;;;;;;;2.17;1.62;;;;;;;24.44;25.02;98859.70;2295843;77;22482;-78
2021/05/09 15:16:10;;;;;;;1.82;1.62;;;;;;;24.37;25.32;98859.58;2295805;77;22958;-79
2021/05/09 15:19:29;;;;;;;1.95;1.75;;;;;;;24.25;25.21;98852.51;2210931;79;23011;-78
2021/05/09 15:22:40;;;;;;;2.17;1.60;;;;;;;24.27;25.67;98858.21;2192222;79;28366;-80
2021/05/09 15:25:52;;;;;;;1.72;1.42;;;;;;;24.49;25.07;98856.84;2301770;77;22855;-79
2021/05/09 15:29:01;;;;;;;2.05;1.40;;;;;;;24.28;24.97;98851.11;2301275;77;22821;-80
2021/05/09 15:32:11;;;;;;;1.67;1.57;;;;;;;24.06;25.10;98843.10;2261354;79;22796;-79
2021/05/09 15:35:21;;;;;;;1.60;1.50;;;;;;;24.06;25.52;98837.30;2301383;77;23514;-78
2021/05/09 15:38:31;;;;;;;1.30;1.20;;;;;;;24.11;26.06;98838.44;2212768;79;22641;-78
2021/05/09 15:41:40;;;;;;;2.45;1.65;;;;;;;24.12;25.67;98838.38;2212963;79;22762;-78
2021/05/09 15:44:50;;;;;;;3.58;1.42;;;;;;;24.07;25.92;98836.84;2296313;77;22854;-78